Time;durP1;ratioP1;P1;durP2;ratioP2;P2;SDS_P1;SDS_P2;PMS_P1;PMS_P2;Temp;Humidity;BMP_temperature;BMP_pressure;BME280_temperature;BME280_humidity;BME280_pressure;Samples;Min_cycle;Max_cycle;Signal;HPM_P1;HPM_P2
2023/04/22 00:00:11;;;;;;;;;;;;;;;;;;4698399;30;19946;-89
2023/04/22 00:02:38;;;;;;;;;;;;;;;;;;4716852;30;20847;-89
2023/04/22 00:05:05;;;;;;;;;;;;;;;;;;4723999;30;19981;-90
2023/04/22 00:07:30;;;;;;;;;;;;;;;;;;4722688;30;19938;-90
2023/04/22 00:09:56;;;;;;;;;;;;;;;;;;4714878;30;20017;-90
2023/04/22 00:12:22;;;;;;;;;;;;;;;;;;4702990;30;19963;-89
2023/04/22 00:14:48;;;;;;;;;;;;;;;;;;4706036;30;19933;-90
2023/04/22 00:17:14;;;;;;;;;;;;;;;;;;4708183;30;20633;-89
2023/04/22 00:19:40;;;;;;;;;;;;;;;;;;4741239;30;19934;-88
2023/04/22 00:22:06;;;;;;;;;;;;;;;;;;4714421;30;19940;-89
2023/04/22 00:24:32;;;;;;;;;;;;;;;;;;4722570;30;20405;-90
2023/04/22 00:26:58;;;;;;;;;;;;;;;;;;4713541;30;19937;-90
2023/04/22 00:29:24;;;;;;;;;;;;;;;;;;4706025;30;19930;-89
2023/04/22 00:31:50;;;;;;;;;;;;;;;;;;4714732;30;19926;-89
2023/04/22 00:34:19;;;;;;;;;;;;;;;;;;4713565;30;20164;-89
2023/04/22 00:36:45;;;;;;;;;;;;;;;;;;4699982;30;19927;-89
2023/04/22 00:39:11;;;;;;;;;;;;;;;;;;4712320;30;20294;-90
2023/04/22 00:41:37;;;;;;;;;;;;;;;;;;4712249;30;19935;-89
2023/04/22 00:44:03;;;;;;;;;;;;;;;;;;4712233;30;19983;-89
2023/04/22 00:46:29;;;;;;;;;;;;;;;;;;4701862;30;19942;-89
2023/04/22 00:48:55;;;;;;;;;;;;;;;;;;4696594;30;19937;-89
2023/04/22 00:51:21;;;;;;;;;;;;;;;;;;4700711;30;20375;-89
2023/04/22 00:53:47;;;;;;;;;;;;;;;;;;4703594;30;19967;-89
2023/04/22 00:56:13;;;;;;;;;;;;;;;;;;4694416;30;19937;-90
2023/04/22 00:58:39;;;;;;;;;;;;;;;;;;4711191;30;20464;-89
2023/04/22 01:01:05;;;;;;;;;;;;;;;;;;4695425;30;19938;-90
2023/04/22 01:03:31;;;;;;;;;;;;;;;;;;4713219;30;19927;-90
2023/04/22 01:05:57;;;;;;;;;;;;;;;;;;4694803;30;20720;-89
2023/04/22 01:08:23;;;;;;;;;;;;;;;;;;4698880;30;19931;-89
2023/04/22 01:10:49;;;;;;;;;;;;;;;;;;4709781;30;20403;-89
2023/04/22 01:13:15;;;;;;;;;;;;;;;;;;4714826;30;23149;-89
2023/04/22 01:15:41;;;;;;;;;;;;;;;;;;4713628;30;19930;-89
2023/04/22 01:18:07;;;;;;;;;;;;;;;;;;4708024;30;20006;-89
2023/04/22 01:20:33;;;;;;;;;;;;;;;;;;4710754;30;19982;-89
2023/04/22 01:22:59;;;;;;;;;;;;;;;;;;4712022;30;20425;-89
2023/04/22 01:25:25;;;;;;;;;;;;;;;;;;4713086;30;19927;-89
2023/04/22 01:27:51;;;;;;;;;;;;;;;;;;4700514;30;20381;-89
2023/04/22 01:30:17;;;;;;;;;;;;;;;;;;4710870;30;20025;-89
2023/04/22 01:32:43;;;;;;;;;;;;;;;;;;4719163;30;19937;-89
2023/04/22 01:35:09;;;;;;;;;;;;;;;;;;4702021;30;19947;-89
2023/04/22 01:37:35;;;;;;;;;;;;;;;;;;4706724;30;19930;-88
2023/04/22 01:40:01;;;;;;;;;;;;;;;;;;4699428;30;20593;-89
2023/04/22 01:42:27;;;;;;;;;;;;;;;;;;4704207;30;20061;-89
2023/04/22 01:44:53;;;;;;;;;;;;;;;;;;4703086;30;19927;-89
2023/04/22 01:47:19;;;;;;;;;;;;;;;;;;4705856;30;19946;-89
2023/04/22 01:49:46;;;;;;;;;;;;;;;;;;4691690;30;19927;-88
2023/04/22 01:52:12;;;;;;;;;;;;;;;;;;4687856;30;19931;-89
2023/04/22 01:54:37;;;;;;;;;;;;;;;;;;4688136;30;19927;-89
2023/04/22 01:57:03;;;;;;;;;;;;;;;;;;4701199;30;20380;-89
2023/04/22 01:59:29;;;;;;;;;;;;;;;;;;4689678;30;20487;-88
2023/04/22 02:01:55;;;;;;;;;;;;;;;;;;4696522;30;19935;-88
2023/04/22 02:04:21;;;;;;;;;;;;;;;;;;4688135;30;19985;-89
2023/04/22 02:06:47;;;;;;;;;;;;;;;;;;4687315;30;20202;-89
2023/04/22 02:09:13;;;;;;;;;;;;;;;;;;4685824;30;19946;-89
2023/04/22 02:11:39;;;;;;;;;;;;;;;;;;4684109;30;19935;-89
2023/04/22 02:14:05;;;;;;;;;;;;;;;;;;4697211;30;20029;-88
2023/04/22 02:16:31;;;;;;;;;;;;;;;;;;4698866;30;19936;-89
2023/04/22 02:18:57;;;;;;;;;;;;;;;;;;4681327;30;19941;-89
2023/04/22 02:21:23;;;;;;;;;;;;;;;;;;4702659;30;19934;-88
2023/04/22 02:23:49;;;;;;;;;;;;;;;;;;4703116;30;19935;-89
2023/04/22 02:26:15;;;;;;;;;;;;;;;;;;4697447;30;19989;-89
2023/04/22 02:28:41;;;;;;;;;;;;;;;;;;4704599;30;19934;-89
2023/04/22 02:31:07;;;;;;;;;;;;;;;;;;4685612;30;19931;-89
2023/04/22 02:33:33;;;;;;;;;;;;;;;;;;4704735;30;19935;-89
2023/04/22 02:35:59;;;;;;;;;;;;;;;;;;4723180;30;20022;-89
2023/04/22 02:38:25;;;;;;;;;;;;;;;;;;4713986;30;19926;-89
2023/04/22 02:40:51;;;;;;;;;;;;;;;;;;4725588;30;20403;-89
2023/04/22 02:43:17;;;;;;;;;;;;;;;;;;4714968;30;19988;-89
2023/04/22 02:45:43;;;;;;;;;;;;;;;;;;4724180;30;19933;-89
2023/04/22 02:48:09;;;;;;;;;;;;;;;;;;4706022;30;19934;-89
2023/04/22 02:50:35;;;;;;;;;;;;;;;;;;4724984;30;19930;-89
2023/04/22 02:53:01;;;;;;;;;;;;;;;;;;4716139;30;19957;-89
2023/04/22 02:55:27;;;;;;;;;;;;;;;;;;4703032;30;19941;-89
2023/04/22 02:57:53;;;;;;;;;;;;;;;;;;4705706;30;20021;-89
2023/04/22 03:00:19;;;;;;;;;;;;;;;;;;4715436;30;19934;-88
2023/04/22 03:02:45;;;;;;;;;;;;;;;;;;4708057;30;19956;-89
2023/04/22 03:05:11;;;;;;;;;;;;;;;;;;4703488;30;19930;-89
2023/04/22 03:07:37;;;;;;;;;;;;;;;;;;4722555;30;19934;-89
2023/04/22 03:10:03;;;;;;;;;;;;;;;;;;4704093;30;19930;-89
2023/04/22 03:12:28;;;;;;;;;;;;;;;;;;4718603;30;19952;-89
2023/04/22 03:14:54;;;;;;;;;;;;;;;;;;4701921;30;19936;-89
2023/04/22 03:17:21;;;;;;;;;;;;;;;;;;4704218;30;19930;-88
2023/04/22 03:19:47;;;;;;;;;;;;;;;;;;4718352;30;19930;-89
2023/04/22 03:22:12;;;;;;;;;;;;;;;;;;4717553;30;19933;-89
2023/04/22 03:24:39;;;;;;;;;;;;;;;;;;4707815;30;19931;-88
2023/04/22 03:27:05;;;;;;;;;;;;;;;;;;4717379;30;20340;-89
2023/04/22 03:29:31;;;;;;;;;;;;;;;;;;4704001;30;19934;-89
2023/04/22 03:31:57;;;;;;;;;;;;;;;;;;4714357;30;20546;-89
2023/04/22 03:34:25;;;;;;;;;;;;;;;;;;4719957;30;20212;-89
2023/04/22 03:36:51;;;;;;;;;;;;;;;;;;4724873;30;19930;-89
2023/04/22 03:39:17;;;;;;;;;;;;;;;;;;4702108;30;20407;-89
2023/04/22 03:41:43;;;;;;;;;;;;;;;;;;4717115;30;19949;-89
2023/04/22 03:44:09;;;;;;;;;;;;;;;;;;4698917;30;19933;-89
2023/04/22 03:46:35;;;;;;;;;;;;;;;;;;4716754;30;19934;-88
2023/04/22 03:49:01;;;;;;;;;;;;;;;;;;4717987;30;20738;-89
2023/04/22 03:51:27;;;;;;;;;;;;;;;;;;4723586;30;19926;-89
2023/04/22 03:53:53;;;;;;;;;;;;;;;;;;4704145;30;19930;-88
2023/04/22 03:56:20;;;;;;;;;;;;;;;;;;4714736;30;19975;-88
2023/04/22 03:58:45;;;;;;;;;;;;;;;;;;4720345;30;20025;-89
2023/04/22 04:01:11;;;;;;;;;;;;;;;;;;4711972;30;19930;-88
2023/04/22 04:03:37;;;;;;;;;;;;;;;;;;4719332;30;19937;-89
2023/04/22 04:06:03;;;;;;;;;;;;;;;;;;4714573;30;20370;-88
2023/04/22 04:08:29;;;;;;;;;;;;;;;;;;4704447;30;19935;-89
2023/04/22 04:10:55;;;;;;;;;;;;;;;;;;4698449;30;19934;-89
2023/04/22 04:13:21;;;;;;;;;;;;;;;;;;4718308;30;20387;-89
2023/04/22 04:15:47;;;;;;;;;;;;;;;;;;4702782;30;20028;-89
2023/04/22 04:18:13;;;;;;;;;;;;;;;;;;4730669;30;20303;-89
2023/04/22 04:20:39;;;;;;;;;;;;;;;;;;4720057;30;19929;-89
2023/04/22 04:23:05;;;;;;;;;;;;;;;;;;4716848;30;19945;-89
2023/04/22 04:25:37;;;;;;;;;;;;;;;;;;4700265;30;19934;-89
2023/04/22 04:28:04;;;;;;;;;;;;;;;;;;4696639;30;19930;-89
2023/04/22 04:30:30;;;;;;;;;;;;;;;;;;4701656;30;19934;-89
2023/04/22 04:32:56;;;;;;;;;;;;;;;;;;4714645;30;19933;-89
2023/04/22 04:35:22;;;;;;;;;;;;;;;;;;4716049;30;19934;-89
2023/04/22 04:37:49;;;;;;;;;;;;;;;;;;4713002;30;20332;-89
2023/04/22 04:40:15;;;;;;;;;;;;;;;;;;4715374;30;19941;-89
2023/04/22 04:42:42;;;;;;;;;;;;;;;;;;4701881;30;20291;-89
2023/04/22 04:45:08;;;;;;;;;;;;;;;;;;4712281;30;20341;-89
2023/04/22 04:47:34;;;;;;;;;;;;;;;;;;4700007;30;19940;-89
2023/04/22 04:50:00;;;;;;;;;;;;;;;;;;4713158;30;20390;-89
2023/04/22 04:52:26;;;;;;;;;;;;;;;;;;4707985;30;19966;-89
2023/04/22 04:54:52;;;;;;;;;;;;;;;;;;4715849;30;19935;-89
2023/04/22 04:57:17;;;;;;;;;;;;;;;;;;4715633;30;19930;-89
2023/04/22 04:59:43;;;;;;;;;;;;;;;;;;4702653;30;19936;-90
2023/04/22 05:02:09;;;;;;;;;;;;;;;;;;4716173;30;20726;-89
2023/04/22 05:04:35;;;;;;;;;;;;;;;;;;4714861;30;19930;-89
2023/04/22 05:07:01;;;;;;;;;;;;;;;;;;4711058;30;20094;-89
2023/04/22 05:09:27;;;;;;;;;;;;;;;;;;4713849;30;20241;-89
2023/04/22 05:11:53;;;;;;;;;;;;;;;;;;4714928;30;19942;-89
2023/04/22 05:14:19;;;;;;;;;;;;;;;;;;4706091;30;20017;-89
2023/04/22 05:16:45;;;;;;;;;;;;;;;;;;4703891;30;20023;-89
2023/04/22 05:19:11;;;;;;;;;;;;;;;;;;4701820;30;21912;-89
2023/04/22 05:21:37;;;;;;;;;;;;;;;;;;4706187;30;19990;-89
2023/04/22 05:24:03;;;;;;;;;;;;;;;;;;4711872;30;19926;-89
2023/04/22 05:26:29;;;;;;;;;;;;;;;;;;4714280;30;19926;-89
2023/04/22 05:28:55;;;;;;;;;;;;;;;;;;4721191;30;20458;-89
2023/04/22 05:31:21;;;;;;;;;;;;;;;;;;4720410;30;20399;-89
2023/04/22 05:33:47;;;;;;;;;;;;;;;;;;4718298;30;19926;-89
2023/04/22 05:36:13;;;;;;;;;;;;;;;;;;4710491;30;19934;-89
2023/04/22 05:38:39;;;;;;;;;;;;;;;;;;4729356;30;19930;-90
2023/04/22 05:41:05;;;;;;;;;;;;;;;;;;4698803;30;20119;-91
2023/04/22 05:43:31;;;;;;;;;;;;;;;;;;4720721;30;19930;-91
2023/04/22 05:45:56;;;;;;;;;;;;;;;;;;4720315;30;19930;-90
2023/04/22 05:48:22;;;;;;;;;;;;;;;;;;4707096;30;19935;-91
2023/04/22 05:50:48;;;;;;;;;;;;;;;;;;4721056;30;19927;-91
2023/04/22 05:53:15;;;;;;;;;;;;;;;;;;4710187;30;20580;-91
2023/04/22 05:55:41;;;;;;;;;;;;;;;;;;4700252;30;20417;-91
2023/04/22 05:58:07;;;;;;;;;;;;;;;;;;4710685;30;20016;-91
2023/04/22 06:00:33;;;;;;;;;;;;;;;;;;4713833;30;20388;-92
2023/04/22 06:02:58;;;;;;;;;;;;;;;;;;4714347;30;19938;-91
2023/04/22 06:05:24;;;;;;;;;;;;;;;;;;4714278;30;19934;-91
2023/04/22 06:07:50;;;;;;;;;;;;;;;;;;4715140;30;20025;-90
2023/04/22 06:10:16;;;;;;;;;;;;;;;;;;4709042;30;19935;-90
2023/04/22 06:12:43;;;;;;;;;;;;;;;;;;4716469;30;19930;-91
2023/04/22 06:15:09;;;;;;;;;;;;;;;;;;4711273;30;19949;-90
2023/04/22 06:17:35;;;;;;;;;;;;;;;;;;4700448;30;20230;-90
2023/04/22 06:20:01;;;;;;;;;;;;;;;;;;4713914;30;19987;-91
2023/04/22 06:22:27;;;;;;;;;;;;;;;;;;4719091;30;19937;-91
2023/04/22 06:24:53;;;;;;;;;;;;;;;;;;4715071;30;19927;-90
2023/04/22 06:27:19;;;;;;;;;;;;;;;;;;4715412;30;19930;-90
2023/04/22 06:29:45;;;;;;;;;;;;;;;;;;4701653;30;19934;-91
2023/04/22 06:32:11;;;;;;;;;;;;;;;;;;4719594;30;19926;-90
2023/04/22 06:34:37;;;;;;;;;;;;;;;;;;4719778;30;19930;-90
2023/04/22 06:37:03;;;;;;;;;;;;;;;;;;4714819;30;19973;-91
2023/04/22 06:39:29;;;;;;;;;;;;;;;;;;4717943;30;20018;-91
2023/04/22 06:41:55;;;;;;;;;;;;;;;;;;4725438;30;19934;-90
2023/04/22 06:44:21;;;;;;;;;;;;;;;;;;4713938;30;19942;-89
2023/04/22 06:46:47;;;;;;;;;;;;;;;;;;4714650;30;19927;-91
2023/04/22 06:49:13;;;;;;;;;;;;;;;;;;4699213;30;19934;-91
2023/04/22 06:51:39;;;;;;;;;;;;;;;;;;4719146;30;19929;-90
2023/04/22 06:54:05;;;;;;;;;;;;;;;;;;4711447;30;20314;-91
2023/04/22 06:56:31;;;;;;;;;;;;;;;;;;4728938;30;19934;-91
2023/04/22 06:58:57;;;;;;;;;;;;;;;;;;4697792;30;19942;-90
2023/04/22 07:01:23;;;;;;;;;;;;;;;;;;4702718;30;19937;-91
2023/04/22 07:03:49;;;;;;;;;;;;;;;;;;4717550;30;19931;-91
2023/04/22 07:06:15;;;;;;;;;;;;;;;;;;4728841;30;20616;-91
2023/04/22 07:08:41;;;;;;;;;;;;;;;;;;4720374;30;20017;-91
2023/04/22 07:11:07;;;;;;;;;;;;;;;;;;4702815;30;19930;-91
2023/04/22 07:13:33;;;;;;;;;;;;;;;;;;4716000;30;19935;-91
2023/04/22 07:15:59;;;;;;;;;;;;;;;;;;4714769;30;19937;-91
2023/04/22 07:18:25;;;;;;;;;;;;;;;;;;4705383;30;19935;-91
2023/04/22 07:20:51;;;;;;;;;;;;;;;;;;4718605;30;19931;-91
2023/04/22 07:23:17;;;;;;;;;;;;;;;;;;4699723;30;19987;-91
2023/04/22 07:25:43;;;;;;;;;;;;;;;;;;4714968;30;19934;-91
2023/04/22 07:28:09;;;;;;;;;;;;;;;;;;4700830;30;20781;-91
2023/04/22 07:30:35;;;;;;;;;;;;;;;;;;4720211;30;19953;-91
2023/04/22 07:33:01;;;;;;;;;;;;;;;;;;4711211;30;20464;-91
2023/04/22 07:35:27;;;;;;;;;;;;;;;;;;4704406;30;19930;-91
2023/04/22 07:37:55;;;;;;;;;;;;;;;;;;4701856;30;20009;-91
2023/04/22 07:40:21;;;;;;;;;;;;;;;;;;4704824;30;20029;-91
2023/04/22 07:42:47;;;;;;;;;;;;;;;;;;4702351;30;20021;-91
2023/04/22 07:45:13;;;;;;;;;;;;;;;;;;4708539;30;20623;-91
2023/04/22 07:47:39;;;;;;;;;;;;;;;;;;4715965;30;19953;-91
2023/04/22 07:50:05;;;;;;;;;;;;;;;;;;4711353;30;19988;-91
2023/04/22 07:52:31;;;;;;;;;;;;;;;;;;4715556;30;19934;-90
2023/04/22 07:54:57;;;;;;;;;;;;;;;;;;4711774;30;20279;-91
2023/04/22 07:57:24;;;;;;;;;;;;;;;;;;4703218;30;20014;-91
2023/04/22 07:59:50;;;;;;;;;;;;;;;;;;4714164;30;19926;-91
2023/04/22 08:02:16;;;;;;;;;;;;;;;;;;4709933;30;19988;-91
2023/04/22 08:04:42;;;;;;;;;;;;;;;;;;4696440;30;20021;-90
2023/04/22 08:07:08;;;;;;;;;;;;;;;;;;4712270;30;20307;-92
2023/04/22 08:09:34;;;;;;;;;;;;;;;;;;4699869;30;19931;-91
2023/04/22 08:12:00;;;;;;;;;;;;;;;;;;4710565;30;20050;-92
2023/04/22 08:14:26;;;;;;;;;;;;;;;;;;4713142;30;19935;-91
2023/04/22 08:16:52;;;;;;;;;;;;;;;;;;4699767;30;19937;-91
2023/04/22 08:19:18;;;;;;;;;;;;;;;;;;4707419;30;19987;-91
2023/04/22 08:21:44;;;;;;;;;;;;;;;;;;4698509;30;20387;-90
2023/04/22 08:24:10;;;;;;;;;;;;;;;;;;4699457;30;19934;-91
2023/04/22 08:26:37;;;;;;;;;;;;;;;;;;4713677;30;19982;-90
2023/04/22 08:29:03;;;;;;;;;;;;;;;;;;4709422;30;19941;-91
2023/04/22 08:31:29;;;;;;;;;;;;;;;;;;4716061;30;19966;-91
2023/04/22 08:33:55;;;;;;;;;;;;;;;;;;4711828;30;19937;-91
2023/04/22 08:36:26;;;;;;;;;;;;;;;;;;4688302;30;19931;-91
2023/04/22 08:38:52;;;;;;;;;;;;;;;;;;4695440;30;19931;-91
2023/04/22 08:41:18;;;;;;;;;;;;;;;;;;4683602;30;19962;-91
2023/04/22 08:43:44;;;;;;;;;;;;;;;;;;4684347;30;20355;-91
2023/04/22 08:46:10;;;;;;;;;;;;;;;;;;4696618;30;20565;-91
2023/04/22 08:48:36;;;;;;;;;;;;;;;;;;4698643;30;19934;-92
2023/04/22 08:51:02;;;;;;;;;;;;;;;;;;4686060;30;19938;-91
2023/04/22 08:53:28;;;;;;;;;;;;;;;;;;4698902;30;20362;-92
2023/04/22 08:55:54;;;;;;;;;;;;;;;;;;4697140;30;19926;-91
2023/04/22 08:58:20;;;;;;;;;;;;;;;;;;4691033;30;20049;-91
2023/04/22 09:00:46;;;;;;;;;;;;;;;;;;4681650;30;19926;-91
2023/04/22 09:03:12;;;;;;;;;;;;;;;;;;4682460;30;19931;-91
2023/04/22 09:05:38;;;;;;;;;;;;;;;;;;4681632;30;19935;-92
2023/04/22 09:08:04;;;;;;;;;;;;;;;;;;4690865;30;19931;-92
2023/04/22 09:10:30;;;;;;;;;;;;;;;;;;4695261;30;19953;-96
2023/04/22 09:12:56;;;;;;;;;;;;;;;;;;4685453;30;20026;-92
2023/04/22 09:15:22;;;;;;;;;;;;;;;;;;4698603;30;20025;-93
2023/04/22 09:17:48;;;;;;;;;;;;;;;;;;4701948;30;20371;-91
2023/04/22 09:20:16;;;;;;;;;;;;;;;;;;4692893;30;19941;-90
2023/04/22 09:22:42;;;;;;;;;;;;;;;;;;4695884;30;20012;-91
2023/04/22 09:25:08;;;;;;;;;;;;;;;;;;4680168;30;20018;-91
2023/04/22 09:27:34;;;;;;;;;;;;;;;;;;4682999;30;19928;-91
2023/04/22 09:30:00;;;;;;;;;;;;;;;;;;4676198;30;19937;-92
2023/04/22 09:32:26;;;;;;;;;;;;;;;;;;4681961;30;19934;-91
2023/04/22 09:34:52;;;;;;;;;;;;;;;;;;4697401;30;19942;-92
2023/04/22 09:37:19;;;;;;;;;;;;;;;;;;4696266;30;19931;-94
2023/04/22 09:39:45;;;;;;;;;;;;;;;;;;4682963;30;20439;-91
2023/04/22 09:42:11;;;;;;;;;;;;;;;;;;4680243;30;19927;-90
2023/04/22 09:44:37;;;;;;;;;;;;;;;;;;4696203;30;19931;-91
2023/04/22 09:47:03;;;;;;;;;;;;;;;;;;4679272;30;20402;-90
2023/04/22 09:49:28;;;;;;;;;;;;;;;;;;4697720;30;19930;-91
2023/04/22 09:51:54;;;;;;;;;;;;;;;;;;4682848;30;19931;-91
2023/04/22 09:54:20;;;;;;;;;;;;;;;;;;4683411;30;20029;-92
2023/04/22 09:56:47;;;;;;;;;;;;;;;;;;4700478;30;19992;-92
2023/04/22 09:59:13;;;;;;;;;;;;;;;;;;4700773;30;19939;-91
2023/04/22 10:01:39;;;;;;;;;;;;;;;;;;4687709;30;23404;-91
2023/04/22 10:04:06;;;;;;;;;;;;;;;;;;4700871;30;19927;-92
2023/04/22 10:06:33;;;;;;;;;;;;;;;;;;4688965;30;19927;-92
2023/04/22 10:08:59;;;;;;;;;;;;;;;;;;4702295;30;19930;-92
2023/04/22 10:11:25;;;;;;;;;;;;;;;;;;4696308;30;20017;-91
2023/04/22 10:13:51;;;;;;;;;;;;;;;;;;4681079;30;19953;-91
2023/04/22 10:16:17;;;;;;;;;;;;;;;;;;4682794;30;20380;-91
2023/04/22 10:18:43;;;;;;;;;;;;;;;;;;4701717;30;19985;-92
2023/04/22 10:21:09;;;;;;;;;;;;;;;;;;4684333;30;19970;-92
2023/04/22 10:23:35;;;;;;;;;;;;;;;;;;4702954;30;20022;-91
2023/04/22 10:26:01;;;;;;;;;;;;;;;;;;4684379;30;19949;-92
2023/04/22 10:28:26;;;;;;;;;;;;;;;;;;4698666;30;20358;-92
2023/04/22 10:30:52;;;;;;;;;;;;;;;;;;4702703;30;19950;-91
2023/04/22 10:33:18;;;;;;;;;;;;;;;;;;4697410;30;19930;-91
2023/04/22 10:35:44;;;;;;;;;;;;;;;;;;4713490;30;19938;-88
2023/04/22 10:38:10;;;;;;;;;;;;;;;;;;4728335;30;20016;-88
2023/04/22 10:40:36;;;;;;;;;;;;;;;;;;4715607;30;19935;-88
2023/04/22 10:43:02;;;;;;;;;;;;;;;;;;4716038;30;20396;-88
2023/04/22 10:45:28;;;;;;;;;;;;;;;;;;4717616;30;19930;-88
2023/04/22 10:47:54;;;;;;;;;;;;;;;;;;4718443;30;20303;-90
2023/04/22 10:50:21;;;;;;;;;;;;;;;;;;4722450;30;19956;-92
2023/04/22 10:52:47;;;;;;;;;;;;;;;;;;4712061;30;19933;-90
2023/04/22 10:55:12;;;;;;;;;;;;;;;;;;4715664;30;19931;-92
2023/04/22 10:57:40;;;;;;;;;;;;;;;;;;4721269;30;19930;-92
2023/04/22 11:00:06;;;;;;;;;;;;;;;;;;4712541;30;20416;-91
2023/04/22 11:02:31;;;;;;;;;;;;;;;;;;4708965;30;20036;-91
2023/04/22 11:04:57;;;;;;;;;;;;;;;;;;4707345;30;20319;-91
2023/04/22 11:07:28;;;;;;;;;;;;;;;;;;4707088;30;20092;-91
2023/04/22 11:09:54;;;;;;;;;;;;;;;;;;4720370;30;19988;-91
2023/04/22 11:12:20;;;;;;;;;;;;;;;;;;4716290;30;20370;-91
2023/04/22 11:14:48;;;;;;;;;;;;;;;;;;4712660;30;20009;-92
2023/04/22 11:17:14;;;;;;;;;;;;;;;;;;4693592;30;19935;-91
2023/04/22 11:19:40;;;;;;;;;;;;;;;;;;4699656;30;19977;-92
2023/04/22 11:22:06;;;;;;;;;;;;;;;;;;4713647;30;19937;-90
2023/04/22 11:24:32;;;;;;;;;;;;;;;;;;4718174;30;19937;-91
2023/04/22 11:26:58;;;;;;;;;;;;;;;;;;4698544;30;20656;-90
2023/04/22 11:29:24;;;;;;;;;;;;;;;;;;4711205;30;19935;-91
2023/04/22 11:31:50;;;;;;;;;;;;;;;;;;4698884;30;19980;-91
2023/04/22 11:34:16;;;;;;;;;;;;;;;;;;4715341;30;19935;-91
2023/04/22 11:36:42;;;;;;;;;;;;;;;;;;4688495;30;20017;-91
2023/04/22 11:39:08;;;;;;;;;;;;;;;;;;4694828;30;19935;-87
2023/04/22 11:41:34;;;;;;;;;;;;;;;;;;4684422;30;20399;-87
2023/04/22 11:44:00;;;;;;;;;;;;;;;;;;4680304;30;19931;-87
2023/04/22 11:46:26;;;;;;;;;;;;;;;;;;4701126;30;19941;-87
2023/04/22 11:48:52;;;;;;;;;;;;;;;;;;4700449;30;19938;-88
2023/04/22 11:51:18;;;;;;;;;;;;;;;;;;4690187;30;19936;-87
2023/04/22 11:53:44;;;;;;;;;;;;;;;;;;4692383;30;19935;-88
2023/04/22 11:56:10;;;;;;;;;;;;;;;;;;4692910;30;19935;-89
2023/04/22 11:58:36;;;;;;;;;;;;;;;;;;4701697;30;19942;-88
2023/04/22 12:01:02;;;;;;;;;;;;;;;;;;4692146;30;20380;-86
2023/04/22 12:03:28;;;;;;;;;;;;;;;;;;4696399;30;20653;-88
2023/04/22 12:05:54;;;;;;;;;;;;;;;;;;4696662;30;19943;-86
2023/04/22 12:08:20;;;;;;;;;;;;;;;;;;4692754;30;20033;-93
2023/04/22 12:10:46;;;;;;;;;;;;;;;;;;4685933;30;19934;-93
2023/04/22 12:13:16;;;;;;;;;;;;;;;;;;4698923;30;19927;-93
2023/04/22 12:15:45;;;;;;;;;;;;;;;;;;4684849;30;19927;-92
2023/04/22 12:18:11;;;;;;;;;;;;;;;;;;4698497;30;19982;-93
2023/04/22 12:20:38;;;;;;;;;;;;;;;;;;4691817;30;19954;-92
2023/04/22 12:23:04;;;;;;;;;;;;;;;;;;4697951;30;19927;-92
2023/04/22 12:25:32;;;;;;;;;;;;;;;;;;4705494;30;20334;-93
2023/04/22 12:27:58;;;;;;;;;;;;;;;;;;4698993;30;20306;-93
2023/04/22 12:30:24;;;;;;;;;;;;;;;;;;4686003;30;19938;-93
2023/04/22 12:32:50;;;;;;;;;;;;;;;;;;4701655;30;19933;-92
2023/04/22 12:35:16;;;;;;;;;;;;;;;;;;4684402;30;19938;-93
2023/04/22 12:37:42;;;;;;;;;;;;;;;;;;4698021;30;19931;-92
2023/04/22 12:40:09;;;;;;;;;;;;;;;;;;4695357;30;19935;-92
2023/04/22 12:42:35;;;;;;;;;;;;;;;;;;4702988;30;19942;-92
2023/04/22 12:45:01;;;;;;;;;;;;;;;;;;4698340;30;20299;-92
2023/04/22 12:47:27;;;;;;;;;;;;;;;;;;4684011;30;19950;-92
2023/04/22 12:49:52;;;;;;;;;;;;;;;;;;4684856;30;19942;-92
2023/04/22 12:52:18;;;;;;;;;;;;;;;;;;4698335;30;19937;-92
2023/04/22 12:54:44;;;;;;;;;;;;;;;;;;4680837;30;19932;-92
2023/04/22 12:57:10;;;;;;;;;;;;;;;;;;4697385;30;19941;-91
2023/04/22 12:59:36;;;;;;;;;;;;;;;;;;4684675;30;21370;-92
2023/04/22 13:02:02;;;;;;;;;;;;;;;;;;4679741;30;19942;-92
2023/04/22 13:04:28;;;;;;;;;;;;;;;;;;4702560;30;19927;-93
2023/04/22 13:06:57;;;;;;;;;;;;;;;;;;4702625;30;19926;-92
2023/04/22 13:09:24;;;;;;;;;;;;;;;;;;4686981;30;19939;-92
2023/04/22 13:11:50;;;;;;;;;;;;;;;;;;4683401;30;19937;-92
2023/04/22 13:14:16;;;;;;;;;;;;;;;;;;4676968;30;21129;-92
2023/04/22 13:16:42;;;;;;;;;;;;;;;;;;4687401;30;19926;-92
2023/04/22 13:19:08;;;;;;;;;;;;;;;;;;4696358;30;20366;-92
2023/04/22 13:21:34;;;;;;;;;;;;;;;;;;4695514;30;19931;-93
2023/04/22 13:24:00;;;;;;;;;;;;;;;;;;4685167;30;19926;-92
2023/04/22 13:26:26;;;;;;;;;;;;;;;;;;4700870;30;19992;-92
2023/04/22 13:28:52;;;;;;;;;;;;;;;;;;4698674;30;19931;-93
2023/04/22 13:31:18;;;;;;;;;;;;;;;;;;4692021;30;20710;-92
2023/04/22 13:33:46;;;;;;;;;;;;;;;;;;4702225;30;19927;-92
2023/04/22 13:36:11;;;;;;;;;;;;;;;;;;4700104;30;19941;-93
2023/04/22 13:38:38;;;;;;;;;;;;;;;;;;4701706;30;19931;-92
2023/04/22 13:41:04;;;;;;;;;;;;;;;;;;4698128;30;20643;-92
2023/04/22 13:43:30;;;;;;;;;;;;;;;;;;4688731;30;19927;-92
2023/04/22 13:45:56;;;;;;;;;;;;;;;;;;4697469;30;20371;-92
2023/04/22 13:48:22;;;;;;;;;;;;;;;;;;4695780;30;19935;-92
2023/04/22 13:50:48;;;;;;;;;;;;;;;;;;4699074;30;19938;-93
2023/04/22 13:53:13;;;;;;;;;;;;;;;;;;4679765;30;19946;-92
2023/04/22 13:55:41;;;;;;;;;;;;;;;;;;4698788;30;19927;-93
2023/04/22 13:58:07;;;;;;;;;;;;;;;;;;4706534;30;19938;-88
2023/04/22 14:00:33;;;;;;;;;;;;;;;;;;4682483;30;20280;-90
2023/04/22 14:02:59;;;;;;;;;;;;;;;;;;4677229;30;19942;-94
2023/04/22 14:05:26;;;;;;;;;;;;;;;;;;4683578;30;19981;-94
2023/04/22 14:07:52;;;;;;;;;;;;;;;;;;4699990;30;19993;-94
2023/04/22 14:10:20;;;;;;;;;;;;;;;;;;4693689;24;19938;-85
2023/04/22 14:15:40;;;;;;;;;;;;;;;;;;4648490;30;19931;-85
2023/04/22 14:18:09;;;;;;;;;;;;;;;;;;4673912;30;19935;-86
2023/04/22 14:23:53;;;;;;;;;;;;;;;;;;;;;
2023/04/22 14:26:08;;;;;;;;;;;;;;;;;;4664678;30;19981;-85
2023/04/22 14:28:34;;;;;;;;;;;;;;;;;;4659794;30;19935;-85
2023/04/22 14:31:00;;;;;;;;;;;;;;;;;;4650508;30;19982;-84
2023/04/22 14:33:26;;;;;;;;;;;;;;;;;;4669418;30;19937;-84
2023/04/22 14:35:52;;;;;;;;;;;;;;;;;;4669459;30;19934;-84
2023/04/22 14:38:21;;;;;;;;;;;;;;;;;;4664961;30;20470;-89
2023/04/22 14:41:04;;;;;;;;;;;;;;;;;;4640820;30;19986;-89
2023/04/22 14:43:42;;;;;;;;;;;;;;;;;;4613656;30;19936;-88
2023/04/22 14:46:11;;;;;;;;;;;;;;;;;;4654719;30;19973;-86
2023/04/22 14:48:43;;;;;;;;;;;;;;;;;;4654829;30;20047;-88
2023/04/22 14:51:12;;;;;;;;;;;;;;;;;;4640677;30;20046;-86
2023/04/22 14:53:39;;;;;;;;;;;;;;;;;;4655196;30;20433;-86
2023/04/22 14:56:05;;;;;;;;;;;;;;;;;;4639477;30;20485;-86
2023/04/22 14:58:37;;;;;;;;;;;;;;;;;;4640471;30;19943;-86
2023/04/22 15:01:03;;;;;;;;;;;;;;;;;;4639775;30;19938;-86
2023/04/22 15:03:29;;;;;;;;;;;;;;;;;;4641114;30;19935;-84
2023/04/22 15:05:56;;;;;;;;;;;;;;;;;;4638332;30;19971;-88
2023/04/22 15:08:25;;;;;;;;;;;;;;;;;;4660819;30;20331;-87
2023/04/22 15:11:01;;;;;;;;;;;;;;;;;;4670307;30;19993;-87
2023/04/22 15:13:30;;;;;;;;;;;;;;;;;;4673876;30;19965;-87
2023/04/22 15:15:56;;;;;;;;;;;;;;;;;;4672652;30;19928;-87
2023/04/22 15:18:22;;;;;;;;;;;;;;;;;;4678167;30;19983;-84
2023/04/22 15:20:48;;;;;;;;;;;;;;;;;;4679078;30;20006;-84
2023/04/22 15:23:14;;;;;;;;;;;;;;;;;;4661912;30;19935;-84
2023/04/22 15:25:40;;;;;;;;;;;;;;;;;;4664309;30;19977;-84
2023/04/22 15:28:06;;;;;;;;;;;;;;;;;;4670362;30;20551;-84
2023/04/22 15:33:40;;;;;;;;;;;;;;;;;;4644914;30;19955;-86
2023/04/22 15:36:27;;;;;;;;;;;;;;;;;;4658854;30;19993;-87
2023/04/22 15:38:58;;;;;;;;;;;;;;;;;;4680696;30;19993;-87
2023/04/22 15:44:21;;;;;;;;;;;;;;;;;;4661510;30;20469;-87
2023/04/22 15:46:47;;;;;;;;;;;;;;;;;;4669862;30;19962;-86
2023/04/22 15:54:54;;;;;;;;;;;;;;;;;;4655055;30;20048;-86
2023/04/22 15:57:42;;;;;;;;;;;;;;;;;;4653052;30;19954;-87
2023/04/22 16:03:21;;;;;;;;;;;;;;;;;;4648708;30;21043;-87
2023/04/22 16:11:49;;;;;;;;;;;;;;;;;;4664276;30;19970;-87
2023/04/22 16:14:28;;;;;;;;;;;;;;;;;;;;;
2023/04/22 16:17:07;;;;;;;;;;;;;;;;;;;;;
2023/04/22 16:19:43;;;;;;;;;;;;;;;;;;;;;
2023/04/22 16:25:39;;;;;;;;;;;;;;;;;;;;;
2023/04/22 16:58:09;;;;;;;;;;;;;;;;;;4657144;30;19927;-87
2023/04/22 17:00:47;;;;;;;;;;;;;;;;;;4660111;30;20569;-86
2023/04/22 17:03:41;;;;;;;;;;;;;;;;;;4669529;30;19926;-86
2023/04/22 17:06:52;;;;;;;;;;;;;;;;;;4601584;30;19987;-86
2023/04/22 17:09:29;;;;;;;;;;;;;;;;;;4594348;30;20039;-87
2023/04/22 17:12:01;;;;;;;;;;;;;;;;;;4599345;30;19947;-86
2023/04/22 17:14:55;;;;;;;;;;;;;;;;;;4618562;30;19940;-87
2023/04/22 17:20:49;;;;;;;;;;;;;;;;;;4630603;30;19927;-88
2023/04/22 17:23:26;;;;;;;;;;;;;;;;;;4639765;30;19971;-87
2023/04/22 17:26:08;;;;;;;;;;;;;;;;;;4658340;30;19970;-87
2023/04/22 17:28:36;;;;;;;;;;;;;;;;;;4637633;30;19935;-87
2023/04/22 17:31:21;;;;;;;;;;;;;;;;;;4615521;30;20014;-88
2023/04/22 17:34:25;;;;;;;;;;;;;;;;;;4604153;30;19927;-87
2023/04/22 17:39:58;;;;;;;;;;;;;;;;;;;;;
2023/04/22 17:55:33;;;;;;;;;;;;;;;;;;;;;
2023/04/22 18:18:38;;;;;;;;;;;;;;;;;;5583244;22;15857675;-87
2023/04/22 18:27:32;;;;;;;;;;;;;;;;;;6068360;23;19925;-90
2023/04/22 18:42:00;;;;;;;;;;;;;;;;;;6307788;22;19976;-91
2023/04/22 18:44:26;;;;;;;;;;;;;;;;;;6255540;22;19919;-90
2023/04/22 18:46:53;;;;;;;;;;;;;;;;;;6251467;22;19945;-90